Bitte eine E-Mail-Adresse für das Benutzerkonto eingeben. Ein Bestätigungscode wird dann an diese verschickt. Sobald der Code vorliegt, kann ein neues Passwort für das Benutzerkonto festgelegt werden.

 

 

 
NEU! ab. 1.4.
Nortel Info 128,740 MHz

WebCam

  
Kamera Halle
Kamera Vorfeld
Wetter EDDS

METAR

EDDS 170920Z VRB02KT CAVOK 15/08 Q1020 NOSIG =
EDDS 170500Z 1706/1806 VRB03KT CAVOK TEMPO 1712/1718 04005KT


TAF

EDDS 170500Z 1706/1806 VRB03KT CAVOK TEMPO 1712/1718 04005KT =


SR/SS

05:44 / 16:29 UTC
(EDSO 17-10-2018)